sensor_id;sensor_type;location;lat;lon;timestamp;P1;durP1;ratioP1;P2;durP2;ratioP2
77451;SDS011;66537;52.370;4.832;2023-02-03T00:00:25;18.80;;;2.75;;
77451;SDS011;66537;52.370;4.832;2023-02-03T00:02:52;15.43;;;2.65;;
77451;SDS011;66537;52.370;4.832;2023-02-03T00:05:18;19.98;;;3.45;;
77451;SDS011;66537;52.370;4.832;2023-02-03T00:07:43;15.77;;;3.08;;
77451;SDS011;66537;52.370;4.832;2023-02-03T00:10:09;16.00;;;3.23;;
77451;SDS011;66537;52.370;4.832;2023-02-03T00:12:35;23.83;;;4.05;;
77451;SDS011;66537;52.370;4.832;2023-02-03T00:15:00;15.90;;;2.78;;
77451;SDS011;66537;52.370;4.832;2023-02-03T00:17:26;13.82;;;2.20;;
77451;SDS011;66537;52.370;4.832;2023-02-03T00:19:51;23.63;;;3.00;;
77451;SDS011;66537;52.370;4.832;2023-02-03T00:22:17;18.38;;;2.83;;
77451;SDS011;66537;52.370;4.832;2023-02-03T00:24:42;19.13;;;2.90;;
77451;SDS011;66537;52.370;4.832;2023-02-03T00:27:07;19.87;;;2.80;;
77451;SDS011;66537;52.370;4.832;2023-02-03T00:29:32;15.87;;;2.23;;
77451;SDS011;66537;52.370;4.832;2023-02-03T00:31:58;17.87;;;2.77;;
77451;SDS011;66537;52.370;4.832;2023-02-03T00:34:26;13.83;;;1.90;;
77451;SDS011;66537;52.370;4.832;2023-02-03T00:36:53;12.15;;;2.60;;
77451;SDS011;66537;52.370;4.832;2023-02-03T00:39:19;15.45;;;2.30;;
77451;SDS011;66537;52.370;4.832;2023-02-03T00:41:44;14.50;;;2.58;;
77451;SDS011;66537;52.370;4.832;2023-02-03T00:44:10;13.50;;;3.03;;
77451;SDS011;66537;52.370;4.832;2023-02-03T00:46:35;9.77;;;2.17;;
77451;SDS011;66537;52.370;4.832;2023-02-03T00:49:01;13.27;;;2.78;;
77451;SDS011;66537;52.370;4.832;2023-02-03T00:51:27;11.85;;;2.70;;
77451;SDS011;66537;52.370;4.832;2023-02-03T00:53:52;17.43;;;2.90;;
77451;SDS011;66537;52.370;4.832;2023-02-03T00:56:18;18.77;;;2.43;;
77451;SDS011;66537;52.370;4.832;2023-02-03T00:58:43;15.18;;;2.47;;
77451;SDS011;66537;52.370;4.832;2023-02-03T01:01:09;16.20;;;2.73;;
77451;SDS011;66537;52.370;4.832;2023-02-03T01:03:35;13.20;;;2.78;;
77451;SDS011;66537;52.370;4.832;2023-02-03T01:06:10;19.50;;;3.10;;
77451;SDS011;66537;52.370;4.832;2023-02-03T01:08:37;17.05;;;2.40;;
77451;SDS011;66537;52.370;4.832;2023-02-03T01:11:06;15.13;;;2.70;;
77451;SDS011;66537;52.370;4.832;2023-02-03T01:13:33;15.95;;;2.60;;
77451;SDS011;66537;52.370;4.832;2023-02-03T01:15:58;14.63;;;2.33;;
77451;SDS011;66537;52.370;4.832;2023-02-03T01:18:24;12.13;;;2.10;;
77451;SDS011;66537;52.370;4.832;2023-02-03T01:20:49;14.05;;;2.58;;
77451;SDS011;66537;52.370;4.832;2023-02-03T01:23:14;17.00;;;2.73;;
77451;SDS011;66537;52.370;4.832;2023-02-03T01:25:40;18.10;;;2.60;;
77451;SDS011;66537;52.370;4.832;2023-02-03T01:28:05;15.40;;;2.65;;
77451;SDS011;66537;52.370;4.832;2023-02-03T01:30:31;13.30;;;2.42;;
77451;SDS011;66537;52.370;4.832;2023-02-03T01:32:56;11.30;;;2.75;;
77451;SDS011;66537;52.370;4.832;2023-02-03T01:35:21;15.98;;;2.42;;
77451;SDS011;66537;52.370;4.832;2023-02-03T01:37:47;12.83;;;2.40;;
77451;SDS011;66537;52.370;4.832;2023-02-03T01:40:12;15.50;;;2.22;;
77451;SDS011;66537;52.370;4.832;2023-02-03T01:42:37;13.70;;;2.00;;
77451;SDS011;66537;52.370;4.832;2023-02-03T01:45:03;17.65;;;2.20;;
77451;SDS011;66537;52.370;4.832;2023-02-03T01:50:21;9.75;;;2.10;;
77451;SDS011;66537;52.370;4.832;2023-02-03T01:52:52;12.80;;;1.85;;
77451;SDS011;66537;52.370;4.832;2023-02-03T01:55:22;11.38;;;2.67;;
77451;SDS011;66537;52.370;4.832;2023-02-03T01:57:56;12.00;;;1.30;;
77451;SDS011;66537;52.370;4.832;2023-02-03T02:00:26;10.60;;;1.60;;
77451;SDS011;66537;52.370;4.832;2023-02-03T02:02:51;12.73;;;2.63;;
77451;SDS011;66537;52.370;4.832;2023-02-03T02:07:56;12.80;;;2.05;;
77451;SDS011;66537;52.370;4.832;2023-02-03T02:10:23;14.15;;;2.00;;
77451;SDS011;66537;52.370;4.832;2023-02-03T02:12:49;15.52;;;2.15;;
77451;SDS011;66537;52.370;4.832;2023-02-03T02:15:14;11.48;;;2.08;;
77451;SDS011;66537;52.370;4.832;2023-02-03T02:25:31;10.07;;;1.60;;
77451;SDS011;66537;52.370;4.832;2023-02-03T02:30:42;15.05;;;2.03;;
77451;SDS011;66537;52.370;4.832;2023-02-03T02:36:31;11.70;;;2.03;;
77451;SDS011;66537;52.370;4.832;2023-02-03T02:39:11;13.77;;;2.00;;
77451;SDS011;66537;52.370;4.832;2023-02-03T02:44:42;15.50;;;1.60;;
77451;SDS011;66537;52.370;4.832;2023-02-03T02:47:22;11.55;;;2.95;;
77451;SDS011;66537;52.370;4.832;2023-02-03T02:49:51;13.18;;;1.75;;
77451;SDS011;66537;52.370;4.832;2023-02-03T02:52:22;16.60;;;2.00;;
77451;SDS011;66537;52.370;4.832;2023-02-03T02:54:53;14.48;;;2.15;;
77451;SDS011;66537;52.370;4.832;2023-02-03T02:57:24;20.25;;;2.78;;
77451;SDS011;66537;52.370;4.832;2023-02-03T02:59:51;14.13;;;2.83;;
77451;SDS011;66537;52.370;4.832;2023-02-03T03:02:17;14.43;;;2.45;;
77451;SDS011;66537;52.370;4.832;2023-02-03T03:04:43;18.83;;;2.00;;
77451;SDS011;66537;52.370;4.832;2023-02-03T03:07:13;13.73;;;1.65;;
77451;SDS011;66537;52.370;4.832;2023-02-03T03:09:43;15.90;;;3.05;;
77451;SDS011;66537;52.370;4.832;2023-02-03T03:14:42;13.57;;;2.58;;
77451;SDS011;66537;52.370;4.832;2023-02-03T03:17:10;15.60;;;2.15;;
77451;SDS011;66537;52.370;4.832;2023-02-03T03:19:46;16.95;;;2.50;;
77451;SDS011;66537;52.370;4.832;2023-02-03T03:22:16;18.00;;;2.83;;
77451;SDS011;66537;52.370;4.832;2023-02-03T03:24:49;10.32;;;1.90;;
77451;SDS011;66537;52.370;4.832;2023-02-03T03:27:23;12.15;;;1.63;;
77451;SDS011;66537;52.370;4.832;2023-02-03T03:29:57;18.52;;;2.67;;
77451;SDS011;66537;52.370;4.832;2023-02-03T03:32:26;14.45;;;2.95;;
77451;SDS011;66537;52.370;4.832;2023-02-03T03:34:54;16.67;;;2.33;;
77451;SDS011;66537;52.370;4.832;2023-02-03T03:37:31;14.93;;;2.38;;
77451;SDS011;66537;52.370;4.832;2023-02-03T03:40:00;14.13;;;2.33;;
77451;SDS011;66537;52.370;4.832;2023-02-03T03:45:48;16.98;;;3.65;;
77451;SDS011;66537;52.370;4.832;2023-02-03T03:48:25;19.67;;;2.55;;
77451;SDS011;66537;52.370;4.832;2023-02-03T03:50:59;18.38;;;2.65;;
77451;SDS011;66537;52.370;4.832;2023-02-03T03:53:29;14.63;;;2.95;;
77451;SDS011;66537;52.370;4.832;2023-02-03T03:55:58;14.02;;;2.03;;
77451;SDS011;66537;52.370;4.832;2023-02-03T03:58:26;10.77;;;1.60;;
77451;SDS011;66537;52.370;4.832;2023-02-03T04:00:55;18.75;;;1.60;;
77451;SDS011;66537;52.370;4.832;2023-02-03T04:03:27;16.33;;;2.00;;
77451;SDS011;66537;52.370;4.832;2023-02-03T04:05:57;17.45;;;2.45;;
77451;SDS011;66537;52.370;4.832;2023-02-03T04:08:23;12.40;;;2.50;;
77451;SDS011;66537;52.370;4.832;2023-02-03T04:10:48;12.57;;;1.77;;
77451;SDS011;66537;52.370;4.832;2023-02-03T04:13:14;16.95;;;2.60;;
77451;SDS011;66537;52.370;4.832;2023-02-03T04:15:49;11.05;;;1.73;;
77451;SDS011;66537;52.370;4.832;2023-02-03T04:18:14;16.53;;;2.47;;
77451;SDS011;66537;52.370;4.832;2023-02-03T04:20:40;12.38;;;2.08;;
77451;SDS011;66537;52.370;4.832;2023-02-03T04:23:06;15.30;;;1.95;;
77451;SDS011;66537;52.370;4.832;2023-02-03T04:25:32;14.57;;;1.70;;
77451;SDS011;66537;52.370;4.832;2023-02-03T04:27:57;17.03;;;2.43;;
77451;SDS011;66537;52.370;4.832;2023-02-03T04:30:22;17.60;;;2.30;;
77451;SDS011;66537;52.370;4.832;2023-02-03T04:32:48;15.93;;;2.10;;
77451;SDS011;66537;52.370;4.832;2023-02-03T04:35:13;14.35;;;2.13;;
77451;SDS011;66537;52.370;4.832;2023-02-03T04:37:39;16.20;;;2.30;;
77451;SDS011;66537;52.370;4.832;2023-02-03T04:40:05;14.63;;;2.08;;
77451;SDS011;66537;52.370;4.832;2023-02-03T04:42:31;17.25;;;2.47;;
77451;SDS011;66537;52.370;4.832;2023-02-03T04:44:56;15.98;;;2.60;;
77451;SDS011;66537;52.370;4.832;2023-02-03T04:47:22;12.90;;;1.93;;
77451;SDS011;66537;52.370;4.832;2023-02-03T04:49:47;14.77;;;2.27;;
77451;SDS011;66537;52.370;4.832;2023-02-03T04:52:13;12.57;;;2.00;;
77451;SDS011;66537;52.370;4.832;2023-02-03T04:54:38;10.35;;;2.15;;
77451;SDS011;66537;52.370;4.832;2023-02-03T04:57:04;16.95;;;1.88;;
77451;SDS011;66537;52.370;4.832;2023-02-03T04:59:30;16.10;;;1.73;;
77451;SDS011;66537;52.370;4.832;2023-02-03T05:01:55;12.52;;;2.50;;
77451;SDS011;66537;52.370;4.832;2023-02-03T05:04:21;10.50;;;1.98;;
77451;SDS011;66537;52.370;4.832;2023-02-03T05:06:46;12.32;;;1.98;;
77451;SDS011;66537;52.370;4.832;2023-02-03T05:09:12;14.10;;;2.50;;
77451;SDS011;66537;52.370;4.832;2023-02-03T05:11:37;8.50;;;1.55;;
77451;SDS011;66537;52.370;4.832;2023-02-03T05:14:02;13.00;;;1.90;;
77451;SDS011;66537;52.370;4.832;2023-02-03T05:16:28;17.83;;;2.30;;
77451;SDS011;66537;52.370;4.832;2023-02-03T05:18:54;16.85;;;2.00;;
77451;SDS011;66537;52.370;4.832;2023-02-03T05:21:19;10.35;;;2.10;;
77451;SDS011;66537;52.370;4.832;2023-02-03T05:23:44;14.38;;;2.35;;
77451;SDS011;66537;52.370;4.832;2023-02-03T05:26:10;13.20;;;2.10;;
77451;SDS011;66537;52.370;4.832;2023-02-03T05:28:35;13.30;;;1.65;;
77451;SDS011;66537;52.370;4.832;2023-02-03T05:31:01;13.63;;;2.15;;
77451;SDS011;66537;52.370;4.832;2023-02-03T05:33:27;22.25;;;2.78;;
77451;SDS011;66537;52.370;4.832;2023-02-03T05:35:53;13.68;;;1.60;;
77451;SDS011;66537;52.370;4.832;2023-02-03T05:38:18;13.20;;;1.83;;
77451;SDS011;66537;52.370;4.832;2023-02-03T05:40:46;16.27;;;2.35;;
77451;SDS011;66537;52.370;4.832;2023-02-03T05:43:31;17.65;;;2.55;;
77451;SDS011;66537;52.370;4.832;2023-02-03T05:45:58;15.80;;;1.88;;
77451;SDS011;66537;52.370;4.832;2023-02-03T05:48:29;16.75;;;2.45;;
77451;SDS011;66537;52.370;4.832;2023-02-03T05:50:55;16.85;;;2.60;;
77451;SDS011;66537;52.370;4.832;2023-02-03T05:53:20;18.40;;;3.10;;
77451;SDS011;66537;52.370;4.832;2023-02-03T05:55:45;14.30;;;2.65;;
77451;SDS011;66537;52.370;4.832;2023-02-03T05:58:11;15.90;;;2.10;;
77451;SDS011;66537;52.370;4.832;2023-02-03T06:00:36;14.45;;;1.60;;
77451;SDS011;66537;52.370;4.832;2023-02-03T06:03:02;17.38;;;2.30;;
77451;SDS011;66537;52.370;4.832;2023-02-03T06:05:29;17.80;;;3.20;;
77451;SDS011;66537;52.370;4.832;2023-02-03T06:07:56;13.85;;;2.35;;
77451;SDS011;66537;52.370;4.832;2023-02-03T06:10:22;16.42;;;1.85;;
77451;SDS011;66537;52.370;4.832;2023-02-03T06:12:48;13.80;;;2.50;;
77451;SDS011;66537;52.370;4.832;2023-02-03T06:15:14;18.50;;;3.35;;
77451;SDS011;66537;52.370;4.832;2023-02-03T06:17:42;14.60;;;2.65;;
77451;SDS011;66537;52.370;4.832;2023-02-03T06:20:09;16.35;;;1.92;;
77451;SDS011;66537;52.370;4.832;2023-02-03T06:22:35;16.40;;;1.85;;
77451;SDS011;66537;52.370;4.832;2023-02-03T06:25:01;13.73;;;2.23;;
77451;SDS011;66537;52.370;4.832;2023-02-03T06:27:26;19.70;;;2.38;;
77451;SDS011;66537;52.370;4.832;2023-02-03T06:29:51;18.53;;;2.07;;
77451;SDS011;66537;52.370;4.832;2023-02-03T06:32:17;18.10;;;2.33;;
77451;SDS011;66537;52.370;4.832;2023-02-03T06:34:43;15.07;;;2.25;;
77451;SDS011;66537;52.370;4.832;2023-02-03T06:37:08;16.00;;;2.60;;
77451;SDS011;66537;52.370;4.832;2023-02-03T06:39:33;19.37;;;2.40;;
77451;SDS011;66537;52.370;4.832;2023-02-03T06:41:59;12.50;;;1.80;;
77451;SDS011;66537;52.370;4.832;2023-02-03T06:44:24;16.53;;;3.43;;
77451;SDS011;66537;52.370;4.832;2023-02-03T06:46:49;14.68;;;1.92;;
77451;SDS011;66537;52.370;4.832;2023-02-03T06:49:15;21.38;;;2.17;;
77451;SDS011;66537;52.370;4.832;2023-02-03T06:51:41;11.25;;;2.80;;
77451;SDS011;66537;52.370;4.832;2023-02-03T06:54:07;14.98;;;2.35;;
77451;SDS011;66537;52.370;4.832;2023-02-03T06:56:34;15.43;;;3.25;;
77451;SDS011;66537;52.370;4.832;2023-02-03T06:59:00;14.20;;;1.70;;
77451;SDS011;66537;52.370;4.832;2023-02-03T07:01:25;16.27;;;2.60;;
77451;SDS011;66537;52.370;4.832;2023-02-03T07:03:51;17.25;;;2.47;;
77451;SDS011;66537;52.370;4.832;2023-02-03T07:06:16;25.17;;;4.33;;
77451;SDS011;66537;52.370;4.832;2023-02-03T07:08:42;16.10;;;2.50;;
77451;SDS011;66537;52.370;4.832;2023-02-03T07:11:07;18.25;;;2.83;;
77451;SDS011;66537;52.370;4.832;2023-02-03T07:13:33;19.95;;;2.78;;
77451;SDS011;66537;52.370;4.832;2023-02-03T07:15:58;16.30;;;2.08;;
77451;SDS011;66537;52.370;4.832;2023-02-03T07:18:23;21.97;;;2.73;;
77451;SDS011;66537;52.370;4.832;2023-02-03T07:20:50;12.63;;;2.72;;
77451;SDS011;66537;52.370;4.832;2023-02-03T07:23:16;14.23;;;2.78;;
77451;SDS011;66537;52.370;4.832;2023-02-03T07:25:41;16.83;;;2.60;;
77451;SDS011;66537;52.370;4.832;2023-02-03T07:28:07;15.50;;;2.33;;
77451;SDS011;66537;52.370;4.832;2023-02-03T07:30:32;24.42;;;2.47;;
77451;SDS011;66537;52.370;4.832;2023-02-03T07:32:58;18.37;;;2.93;;
77451;SDS011;66537;52.370;4.832;2023-02-03T07:35:23;18.05;;;2.53;;
77451;SDS011;66537;52.370;4.832;2023-02-03T07:37:49;15.25;;;2.55;;
77451;SDS011;66537;52.370;4.832;2023-02-03T07:40:14;21.60;;;2.93;;
77451;SDS011;66537;52.370;4.832;2023-02-03T07:42:41;19.63;;;2.22;;
77451;SDS011;66537;52.370;4.832;2023-02-03T07:45:07;13.10;;;1.95;;
77451;SDS011;66537;52.370;4.832;2023-02-03T07:47:33;19.77;;;1.83;;
77451;SDS011;66537;52.370;4.832;2023-02-03T07:49:59;13.45;;;2.60;;
77451;SDS011;66537;52.370;4.832;2023-02-03T07:52:24;10.80;;;1.70;;
77451;SDS011;66537;52.370;4.832;2023-02-03T07:54:49;17.27;;;2.40;;
77451;SDS011;66537;52.370;4.832;2023-02-03T07:57:14;12.07;;;1.93;;
77451;SDS011;66537;52.370;4.832;2023-02-03T07:59:40;16.08;;;2.08;;
77451;SDS011;66537;52.370;4.832;2023-02-03T08:02:05;17.00;;;2.27;;
77451;SDS011;66537;52.370;4.832;2023-02-03T08:04:33;11.85;;;1.80;;
77451;SDS011;66537;52.370;4.832;2023-02-03T08:06:58;15.33;;;2.50;;
77451;SDS011;66537;52.370;4.832;2023-02-03T08:09:23;18.70;;;2.35;;
77451;SDS011;66537;52.370;4.832;2023-02-03T08:11:49;16.60;;;2.50;;
77451;SDS011;66537;52.370;4.832;2023-02-03T08:14:14;15.53;;;2.07;;
77451;SDS011;66537;52.370;4.832;2023-02-03T08:16:39;16.30;;;2.50;;
77451;SDS011;66537;52.370;4.832;2023-02-03T08:19:05;16.73;;;2.70;;
77451;SDS011;66537;52.370;4.832;2023-02-03T08:21:30;16.13;;;2.08;;
77451;SDS011;66537;52.370;4.832;2023-02-03T08:23:56;18.33;;;2.42;;
77451;SDS011;66537;52.370;4.832;2023-02-03T08:26:21;17.93;;;3.10;;
77451;SDS011;66537;52.370;4.832;2023-02-03T08:28:47;13.43;;;2.33;;
77451;SDS011;66537;52.370;4.832;2023-02-03T08:31:14;18.38;;;2.53;;
77451;SDS011;66537;52.370;4.832;2023-02-03T08:33:39;14.18;;;2.28;;
77451;SDS011;66537;52.370;4.832;2023-02-03T08:36:05;16.33;;;2.70;;
77451;SDS011;66537;52.370;4.832;2023-02-03T08:38:31;10.98;;;2.10;;
77451;SDS011;66537;52.370;4.832;2023-02-03T08:40:57;13.57;;;2.35;;
77451;SDS011;66537;52.370;4.832;2023-02-03T08:43:22;14.55;;;2.28;;
77451;SDS011;66537;52.370;4.832;2023-02-03T08:45:47;15.90;;;2.22;;
77451;SDS011;66537;52.370;4.832;2023-02-03T08:48:13;12.10;;;2.57;;
77451;SDS011;66537;52.370;4.832;2023-02-03T08:50:42;17.45;;;2.00;;
77451;SDS011;66537;52.370;4.832;2023-02-03T08:53:08;14.68;;;2.20;;
77451;SDS011;66537;52.370;4.832;2023-02-03T08:55:37;15.55;;;2.60;;
77451;SDS011;66537;52.370;4.832;2023-02-03T08:58:03;15.85;;;2.92;;
77451;SDS011;66537;52.370;4.832;2023-02-03T09:00:29;17.20;;;2.53;;
77451;SDS011;66537;52.370;4.832;2023-02-03T09:02:54;11.33;;;1.93;;
77451;SDS011;66537;52.370;4.832;2023-02-03T09:05:20;15.10;;;2.30;;
77451;SDS011;66537;52.370;4.832;2023-02-03T09:07:46;14.45;;;1.35;;
77451;SDS011;66537;52.370;4.832;2023-02-03T09:10:11;17.70;;;1.98;;
77451;SDS011;66537;52.370;4.832;2023-02-03T09:12:36;10.43;;;1.50;;
77451;SDS011;66537;52.370;4.832;2023-02-03T09:15:02;7.07;;;1.45;;
77451;SDS011;66537;52.370;4.832;2023-02-03T09:17:27;9.55;;;1.83;;
77451;SDS011;66537;52.370;4.832;2023-02-03T09:19:53;10.33;;;1.87;;
77451;SDS011;66537;52.370;4.832;2023-02-03T09:22:18;15.43;;;2.05;;
77451;SDS011;66537;52.370;4.832;2023-02-03T09:24:43;9.48;;;2.08;;
77451;SDS011;66537;52.370;4.832;2023-02-03T09:27:09;10.95;;;2.13;;
77451;SDS011;66537;52.370;4.832;2023-02-03T09:29:34;12.63;;;1.65;;
77451;SDS011;66537;52.370;4.832;2023-02-03T09:31:59;13.83;;;2.17;;
77451;SDS011;66537;52.370;4.832;2023-02-03T09:34:30;12.20;;;1.77;;
77451;SDS011;66537;52.370;4.832;2023-02-03T09:36:56;10.40;;;1.50;;
77451;SDS011;66537;52.370;4.832;2023-02-03T09:39:21;14.85;;;1.95;;
77451;SDS011;66537;52.370;4.832;2023-02-03T09:44:49;14.07;;;2.33;;
77451;SDS011;66537;52.370;4.832;2023-02-03T09:47:17;11.65;;;1.63;;
77451;SDS011;66537;52.370;4.832;2023-02-03T09:49:50;13.63;;;1.58;;
77451;SDS011;66537;52.370;4.832;2023-02-03T09:52:20;12.45;;;2.70;;
77451;SDS011;66537;52.370;4.832;2023-02-03T09:58:10;14.63;;;2.60;;
77451;SDS011;66537;52.370;4.832;2023-02-03T10:00:45;10.65;;;1.70;;
77451;SDS011;66537;52.370;4.832;2023-02-03T10:03:24;11.88;;;1.95;;
77451;SDS011;66537;52.370;4.832;2023-02-03T10:05:58;11.25;;;2.33;;
77451;SDS011;66537;52.370;4.832;2023-02-03T10:14:33;15.48;;;2.45;;
77451;SDS011;66537;52.370;4.832;2023-02-03T10:19:47;10.63;;;2.05;;
77451;SDS011;66537;52.370;4.832;2023-02-03T10:22:19;14.20;;;2.22;;
77451;SDS011;66537;52.370;4.832;2023-02-03T10:25:30;11.50;;;2.53;;
77451;SDS011;66537;52.370;4.832;2023-02-03T10:27:38;11.85;;;1.27;;
77451;SDS011;66537;52.370;4.832;2023-02-03T10:30:19;9.40;;;2.35;;
77451;SDS011;66537;52.370;4.832;2023-02-03T10:32:45;12.77;;;1.95;;
77451;SDS011;66537;52.370;4.832;2023-02-03T10:35:13;9.18;;;2.42;;
77451;SDS011;66537;52.370;4.832;2023-02-03T10:37:49;12.05;;;2.28;;
77451;SDS011;66537;52.370;4.832;2023-02-03T10:40:17;17.75;;;2.53;;
77451;SDS011;66537;52.370;4.832;2023-02-03T10:42:46;17.15;;;2.80;;
77451;SDS011;66537;52.370;4.832;2023-02-03T10:45:32;9.00;;;1.73;;
77451;SDS011;66537;52.370;4.832;2023-02-03T10:48:01;20.55;;;2.42;;
77451;SDS011;66537;52.370;4.832;2023-02-03T10:50:28;16.02;;;2.50;;
77451;SDS011;66537;52.370;4.832;2023-02-03T10:53:38;15.27;;;2.88;;
77451;SDS011;66537;52.370;4.832;2023-02-03T10:56:01;15.85;;;2.33;;
77451;SDS011;66537;52.370;4.832;2023-02-03T10:58:48;13.45;;;3.15;;
77451;SDS011;66537;52.370;4.832;2023-02-03T11:01:16;10.02;;;2.92;;
77451;SDS011;66537;52.370;4.832;2023-02-03T11:06:21;11.70;;;2.00;;
77451;SDS011;66537;52.370;4.832;2023-02-03T11:08:48;16.08;;;2.72;;
77451;SDS011;66537;52.370;4.832;2023-02-03T11:11:19;12.07;;;2.13;;
77451;SDS011;66537;52.370;4.832;2023-02-03T11:13:52;12.02;;;2.05;;
77451;SDS011;66537;52.370;4.832;2023-02-03T11:16:18;11.13;;;2.13;;
77451;SDS011;66537;52.370;4.832;2023-02-03T11:18:54;16.23;;;2.15;;
77451;SDS011;66537;52.370;4.832;2023-02-03T11:27:08;11.13;;;1.90;;
77451;SDS011;66537;52.370;4.832;2023-02-03T11:29:37;12.30;;;1.80;;
77451;SDS011;66537;52.370;4.832;2023-02-03T11:37:30;13.77;;;2.10;;
77451;SDS011;66537;52.370;4.832;2023-02-03T11:42:32;10.32;;;2.70;;
77451;SDS011;66537;52.370;4.832;2023-02-03T11:47:52;9.18;;;2.15;;
77451;SDS011;66537;52.370;4.832;2023-02-03T11:50:26;11.40;;;1.85;;
77451;SDS011;66537;52.370;4.832;2023-02-03T11:58:42;14.35;;;2.42;;
77451;SDS011;66537;52.370;4.832;2023-02-03T12:04:28;12.95;;;2.60;;
77451;SDS011;66537;52.370;4.832;2023-02-03T12:15:18;13.50;;;2.60;;
77451;SDS011;66537;52.370;4.832;2023-02-03T12:17:57;15.07;;;1.88;;
77451;SDS011;66537;52.370;4.832;2023-02-03T12:20:30;17.35;;;2.97;;
77451;SDS011;66537;52.370;4.832;2023-02-03T12:28:55;16.05;;;2.95;;
77451;SDS011;66537;52.370;4.832;2023-02-03T12:31:33;21.30;;;2.88;;
77451;SDS011;66537;52.370;4.832;2023-02-03T12:37:18;18.70;;;3.17;;
77451;SDS011;66537;52.370;4.832;2023-02-03T12:39:52;21.98;;;3.53;;
77451;SDS011;66537;52.370;4.832;2023-02-03T12:42:20;18.42;;;3.42;;
77451;SDS011;66537;52.370;4.832;2023-02-03T12:45:00;20.52;;;2.95;;
77451;SDS011;66537;52.370;4.832;2023-02-03T12:57:53;18.48;;;2.72;;
77451;SDS011;66537;52.370;4.832;2023-02-03T13:03:10;13.57;;;2.92;;
77451;SDS011;66537;52.370;4.832;2023-02-03T13:05:44;24.23;;;3.17;;
77451;SDS011;66537;52.370;4.832;2023-02-03T13:11:05;21.73;;;3.05;;
77451;SDS011;66537;52.370;4.832;2023-02-03T13:13:34;17.70;;;2.53;;
77451;SDS011;66537;52.370;4.832;2023-02-03T13:16:05;18.08;;;2.67;;
77451;SDS011;66537;52.370;4.832;2023-02-03T13:18:40;17.27;;;2.97;;
77451;SDS011;66537;52.370;4.832;2023-02-03T13:21:10;18.25;;;3.13;;
77451;SDS011;66537;52.370;4.832;2023-02-03T13:23:36;24.15;;;3.70;;
77451;SDS011;66537;52.370;4.832;2023-02-03T13:26:16;26.90;;;2.97;;
77451;SDS011;66537;52.370;4.832;2023-02-03T13:32:09;18.63;;;2.78;;
77451;SDS011;66537;52.370;4.832;2023-02-03T13:40:22;24.85;;;4.38;;
77451;SDS011;66537;52.370;4.832;2023-02-03T13:42:53;22.40;;;3.38;;
77451;SDS011;66537;52.370;4.832;2023-02-03T13:48:12;23.65;;;3.22;;
77451;SDS011;66537;52.370;4.832;2023-02-03T13:50:44;23.65;;;2.78;;
77451;SDS011;66537;52.370;4.832;2023-02-03T13:53:14;25.08;;;3.50;;
77451;SDS011;66537;52.370;4.832;2023-02-03T13:55:54;23.35;;;3.38;;
77451;SDS011;66537;52.370;4.832;2023-02-03T13:58:25;19.33;;;3.20;;
77451;SDS011;66537;52.370;4.832;2023-02-03T14:05:48;23.08;;;3.67;;
77451;SDS011;66537;52.370;4.832;2023-02-03T14:18:59;21.45;;;3.70;;
77451;SDS011;66537;52.370;4.832;2023-02-03T14:21:24;22.63;;;3.73;;
77451;SDS011;66537;52.370;4.832;2023-02-03T14:23:54;24.95;;;3.85;;
77451;SDS011;66537;52.370;4.832;2023-02-03T14:26:27;30.40;;;3.67;;
77451;SDS011;66537;52.370;4.832;2023-02-03T14:28:57;28.15;;;3.90;;
77451;SDS011;66537;52.370;4.832;2023-02-03T14:31:24;23.77;;;4.47;;
77451;SDS011;66537;52.370;4.832;2023-02-03T14:34:10;24.63;;;3.25;;
77451;SDS011;66537;52.370;4.832;2023-02-03T14:36:43;24.83;;;4.32;;
77451;SDS011;66537;52.370;4.832;2023-02-03T14:41:53;22.48;;;3.95;;
77451;SDS011;66537;52.370;4.832;2023-02-03T14:58:16;22.10;;;4.18;;
77451;SDS011;66537;52.370;4.832;2023-02-03T15:00:43;24.77;;;4.32;;
77451;SDS011;66537;52.370;4.832;2023-02-03T15:11:13;25.38;;;3.78;;
77451;SDS011;66537;52.370;4.832;2023-02-03T15:13:39;26.25;;;3.80;;
77451;SDS011;66537;52.370;4.832;2023-02-03T15:16:05;21.55;;;5.25;;
77451;SDS011;66537;52.370;4.832;2023-02-03T15:18:39;25.70;;;3.65;;
77451;SDS011;66537;52.370;4.832;2023-02-03T15:21:05;26.05;;;4.25;;
77451;SDS011;66537;52.370;4.832;2023-02-03T15:23:38;19.38;;;3.13;;
77451;SDS011;66537;52.370;4.832;2023-02-03T15:26:25;23.92;;;3.20;;
77451;SDS011;66537;52.370;4.832;2023-02-03T15:28:58;26.92;;;3.63;;
77451;SDS011;66537;52.370;4.832;2023-02-03T15:31:30;24.92;;;4.10;;
77451;SDS011;66537;52.370;4.832;2023-02-03T15:33:58;32.13;;;4.15;;
77451;SDS011;66537;52.370;4.832;2023-02-03T15:36:42;20.92;;;2.47;;
77451;SDS011;66537;52.370;4.832;2023-02-03T15:39:16;17.50;;;3.35;;
77451;SDS011;66537;52.370;4.832;2023-02-03T15:41:42;22.27;;;2.95;;
77451;SDS011;66537;52.370;4.832;2023-02-03T15:44:12;22.88;;;3.50;;
77451;SDS011;66537;52.370;4.832;2023-02-03T15:46:49;32.90;;;3.65;;
77451;SDS011;66537;52.370;4.832;2023-02-03T15:49:21;20.67;;;3.00;;
77451;SDS011;66537;52.370;4.832;2023-02-03T15:52:15;22.83;;;3.42;;
77451;SDS011;66537;52.370;4.832;2023-02-03T15:54:44;20.25;;;2.90;;
77451;SDS011;66537;52.370;4.832;2023-02-03T15:59:53;23.90;;;3.35;;
77451;SDS011;66537;52.370;4.832;2023-02-03T16:02:28;27.13;;;3.38;;
77451;SDS011;66537;52.370;4.832;2023-02-03T16:04:57;29.20;;;3.95;;
77451;SDS011;66537;52.370;4.832;2023-02-03T16:07:29;33.28;;;3.90;;
77451;SDS011;66537;52.370;4.832;2023-02-03T16:09:55;25.55;;;3.25;;
77451;SDS011;66537;52.370;4.832;2023-02-03T16:12:28;21.52;;;3.28;;
77451;SDS011;66537;52.370;4.832;2023-02-03T16:14:55;24.88;;;3.08;;
77451;SDS011;66537;52.370;4.832;2023-02-03T16:17:24;23.20;;;4.22;;
77451;SDS011;66537;52.370;4.832;2023-02-03T16:22:36;29.23;;;4.32;;
77451;SDS011;66537;52.370;4.832;2023-02-03T16:25:13;25.92;;;3.70;;
77451;SDS011;66537;52.370;4.832;2023-02-03T16:27:43;25.38;;;3.85;;
77451;SDS011;66537;52.370;4.832;2023-02-03T16:35:52;20.63;;;3.83;;
77451;SDS011;66537;52.370;4.832;2023-02-03T16:38:37;22.73;;;3.65;;
77451;SDS011;66537;52.370;4.832;2023-02-03T16:41:21;19.05;;;3.47;;
77451;SDS011;66537;52.370;4.832;2023-02-03T16:44:04;23.58;;;3.83;;
77451;SDS011;66537;52.370;4.832;2023-02-03T16:46:48;24.27;;;4.15;;
77451;SDS011;66537;52.370;4.832;2023-02-03T16:49:32;27.17;;;4.05;;
77451;SDS011;66537;52.370;4.832;2023-02-03T16:52:16;27.02;;;3.78;;
77451;SDS011;66537;52.370;4.832;2023-02-03T16:54:42;20.40;;;2.57;;
77451;SDS011;66537;52.370;4.832;2023-02-03T16:57:07;30.37;;;3.70;;
77451;SDS011;66537;52.370;4.832;2023-02-03T16:59:32;27.80;;;3.83;;
77451;SDS011;66537;52.370;4.832;2023-02-03T17:01:58;20.17;;;3.60;;
77451;SDS011;66537;52.370;4.832;2023-02-03T17:04:24;30.00;;;4.88;;
77451;SDS011;66537;52.370;4.832;2023-02-03T17:06:49;24.88;;;3.50;;
77451;SDS011;66537;52.370;4.832;2023-02-03T17:09:15;26.60;;;4.10;;
77451;SDS011;66537;52.370;4.832;2023-02-03T17:11:46;28.23;;;3.30;;
77451;SDS011;66537;52.370;4.832;2023-02-03T17:14:12;20.17;;;3.03;;
77451;SDS011;66537;52.370;4.832;2023-02-03T17:16:37;21.70;;;3.72;;
77451;SDS011;66537;52.370;4.832;2023-02-03T17:19:02;28.80;;;3.93;;
77451;SDS011;66537;52.370;4.832;2023-02-03T17:21:28;28.55;;;4.63;;
77451;SDS011;66537;52.370;4.832;2023-02-03T17:23:53;22.42;;;3.22;;
77451;SDS011;66537;52.370;4.832;2023-02-03T17:26:19;19.75;;;3.25;;
77451;SDS011;66537;52.370;4.832;2023-02-03T17:28:44;33.15;;;4.10;;
77451;SDS011;66537;52.370;4.832;2023-02-03T17:31:14;26.38;;;3.65;;